Fairview, UT (84629)

12:30 AM MDT on September 19, 2014 (GMT -0600)
Mountain Dell Scout Ranch | Change Station
CLOSE
Current Station
Personal Weather Station
Location: Mount Pleasant, UT
Elevation: 7480 ft
Nearby Weather Stations

Elev 7480 ft 39.50 °N, 111.39 °W | Updated 3 seconds ago

Partly Cloudy
Partly Cloudy
59.7 °F
Feels Like 59.7 °F
N
2.0
Wind Variable Wind from ESE
Gusts 2.0 mph

Today
High -- | Low -- °F
--% Chance of Precip.
Yesterday
High -- | Low -- °F
Precip. -- in
7:10 AM 7:27 PM
Waning Crescent, 21% visible
Pressure 29.76 in
Visibility 10.0 miles
Clouds Clear
Dew Point 39 °F
Humidity 46%
Rainfall 0.00 in
Snow Depth Not available.
UV 0 out of 12
Pollen 5.30 out of 12
Air Quality Not available.
Flu Activity Not available.
METAR KPUC 190553Z AUTO 05006KT 10SM CLR 18/04 A3000 RMK AO2 SLP076 T01780039 10294 20178 50006

More Conditions Fewer Conditions

Pressure 29.76 in
Visibility 10.0 miles
Clouds Clear
Dew Point 39 °F
Humidity 46%
Rainfall 0.00 in
Snow Depth Not available.
UV 0 out of 12
Pollen 5.30 out of 12
Air Quality Not available.
Flu Activity Not available.
METAR KPUC 190553Z AUTO 05006KT 10SM CLR 18/04 A3000 RMK AO2 SLP076 T01780039 10294 20178 50006

More Conditions Fewer Conditions

10-Day Weather Forecast

Almanac

Astronomy

Sep. 19, 2014 Rise Set
Actual Time 7:10 AM MDT 7:27 PM MDT
Civil Twilight 6:43 AM MDT 7:54 PM MDT
Nautical Twilight 6:11 AM MDT 8:26 PM MDT
Astronomical Twilight 5:39 AM MDT 8:58 PM MDT
Moon 2:59 AM MDT 4:58 PM MDT
Length of Visible Light 13h 11m
Length of Day
12h 17m
Tomorrow will be 2m 35s shorter.
Waning Crescent, 21% of the Moon is Illuminated
Today
Waning Crescent
Sep 24
New
Oct 1
First Quarter
Oct 8
Full
Oct 15
Last Quarter

Today's Extremes

State Highs State Lows

Community

WunderPhotos

Upload Photos

1,754,575 photos uploaded!

Nearby

Snow Depth

Station Depth Elevation
Chalk Creek #1 0 in 9100 ft
Long Flat 0 in 8000 ft
Agua Canyon 0 in 8900 ft
Temple Fork 0 in 7406 ft
Trout Creek 1 in 9400 ft

Earthquake Activity

City Distance Mag. Time & Date
No recent earthquake activity has been reported nearby.
Minimum magnitude displayed is 2.5.

Coastal Water Temperatures

Place Temperature
No Stations Reporting

Nearby Weather Stations